Archer City, Texas
Current Conditions -  °F | °C
As of 7:35 AM on Saturday 01 Nov 2014 (Local Time) from KCWC Reporting Station
Clear Clear  
Wind Chill: 33°   Ceiling: Unl
Heat Index: 33°   Visibility: 10mi
Dew Point: 26°   Wind: 3mph
Humidity: 75%   Direction: 70°ENE
Pressure: 30.41"   Gusts: NA
Location:  33.6°N, 98.63°W
Report Text: KCWC 011235Z AUTO 07003KT 10SM CLR 01/M03 A3041 RMK AO2 T00081032
Loading
Personal Weather Stations






























Interactive Weather Map
Tropical Storm Tracking
New forecast layout! Learn more

10-Day Weather Forecast

Advertisements
Track Severe Weather on mobile